Time;durP1;ratioP1;P1;durP2;ratioP2;P2;SDS_P1;SDS_P2;PMS_P1;PMS_P2;Temp;Humidity;BMP_temperature;BMP_pressure;BME280_temperature;BME280_humidity;BME280_pressure;Samples;Min_cycle;Max_cycle;Signal;HPM_P1;HPM_P2
2023/07/27 00:00:46;;;;;;;10.40;4.72;;;13.40;99.90;;;;;;5075325;28;20055;-70
2023/07/27 00:03:12;;;;;;;7.35;5.03;;;13.40;99.90;;;;;;5075049;28;20044;-70
2023/07/27 00:05:37;;;;;;;8.70;4.57;;;13.60;99.90;;;;;;5075258;28;20043;-70
2023/07/27 00:08:03;;;;;;;6.85;3.83;;;13.50;99.90;;;;;;5074865;28;20036;-70
2023/07/27 00:10:29;;;;;;;6.40;4.45;;;13.40;99.90;;;;;;5074932;28;20048;-70
2023/07/27 00:12:55;;;;;;;10.70;4.63;;;13.40;99.90;;;;;;5075389;28;20516;-70
2023/07/27 00:15:20;;;;;;;9.57;4.78;;;13.50;99.90;;;;;;5075055;28;20454;-70
2023/07/27 00:17:46;;;;;;;10.18;4.78;;;13.40;99.90;;;;;;5074898;28;20041;-70
2023/07/27 00:20:12;;;;;;;7.70;4.82;;;13.50;99.90;;;;;;5074968;28;20047;-70
2023/07/27 00:22:37;;;;;;;8.90;4.95;;;13.40;99.90;;;;;;5074879;28;20036;-70
2023/07/27 00:25:04;;;;;;;11.73;5.40;;;13.30;99.90;;;;;;5074782;28;20063;-70
2023/07/27 00:27:30;;;;;;;11.07;4.53;;;13.30;99.90;;;;;;5074780;28;20062;-70
2023/07/27 00:29:55;;;;;;;9.15;4.95;;;13.40;99.90;;;;;;5073659;28;20033;-70
2023/07/27 00:32:21;;;;;;;9.32;5.07;;;13.40;99.90;;;;;;5074673;28;20503;-70
2023/07/27 00:34:47;;;;;;;9.60;5.82;;;13.40;99.90;;;;;;5074855;28;20389;-70
2023/07/27 00:37:13;;;;;;;8.35;4.45;;;13.20;99.90;;;;;;5074467;28;20032;-70
2023/07/27 00:39:38;;;;;;;8.25;5.03;;;13.30;99.90;;;;;;5074538;28;20111;-70
2023/07/27 00:42:04;;;;;;;10.52;5.18;;;13.30;99.90;;;;;;5074537;28;20075;-70
2023/07/27 00:44:30;;;;;;;12.13;5.68;;;13.20;99.90;;;;;;5074654;28;20040;-71
2023/07/27 00:46:55;;;;;;;10.75;5.60;;;13.20;99.90;;;;;;5074170;28;20033;-70
2023/07/27 00:49:21;;;;;;;9.10;4.97;;;13.30;99.90;;;;;;5074564;28;20044;-70
2023/07/27 00:51:47;;;;;;;8.93;5.28;;;13.20;99.90;;;;;;5074261;28;20407;-70
2023/07/27 00:54:14;;;;;;;9.88;5.38;;;13.20;99.90;;;;;;5074395;28;20133;-70
2023/07/27 00:56:39;;;;;;;13.38;5.72;;;13.20;99.90;;;;;;5074316;28;20106;-70
2023/07/27 00:59:06;;;;;;;10.52;5.72;;;13.20;99.90;;;;;;5075082;28;20090;-70
2023/07/27 01:01:32;;;;;;;10.32;5.38;;;13.30;99.90;;;;;;5074926;28;20044;-70
2023/07/27 01:03:58;;;;;;;10.88;5.68;;;13.20;99.90;;;;;;5075109;28;20048;-70
2023/07/27 01:06:24;;;;;;;12.85;5.88;;;13.30;99.90;;;;;;5074764;28;20041;-70
2023/07/27 01:08:51;;;;;;;11.30;6.10;;;13.10;99.90;;;;;;5073467;28;20036;-69
2023/07/27 01:11:26;;;;;;;12.40;5.80;;;13.30;99.90;;;;;;5074831;28;20043;-69
2023/07/27 01:14:02;;;;;;;9.60;5.78;;;13.30;99.90;;;;;;5075073;28;20071;-69
2023/07/27 01:16:40;;;;;;;7.60;5.10;;;13.10;99.90;;;;;;5074932;28;20123;-69
2023/07/27 01:19:24;;;;;;;8.93;5.40;;;13.10;99.90;;;;;;5074588;28;20114;-70
2023/07/27 01:22:07;;;;;;;8.65;5.00;;;13.00;99.90;;;;;;5074595;28;20047;-69
2023/07/27 01:25:20;;;;;;;9.82;5.60;;;13.00;99.90;;;;;;5073045;28;20045;-69
2023/07/27 01:28:03;;;;;;;9.40;5.20;;;13.00;99.90;;;;;;5011885;28;20056;-70
2023/07/27 01:30:55;;;;;;;8.93;5.05;;;13.10;99.90;;;;;;5073743;28;20051;-70
2023/07/27 01:33:38;;;;;;;8.80;5.30;;;13.00;99.90;;;;;;5074018;28;20048;-70
2023/07/27 01:36:24;;;;;;;9.32;5.28;;;13.10;99.90;;;;;;5073795;28;20083;-69
2023/07/27 01:38:52;;;;;;;9.43;5.50;;;13.00;99.90;;;;;;5073871;28;20044;-69
2023/07/27 01:41:19;;;;;;;8.98;5.47;;;13.10;99.90;;;;;;5073466;28;20487;-69
2023/07/27 01:43:45;;;;;;;9.38;5.20;;;13.10;99.90;;;;;;5073486;28;20427;-69
2023/07/27 01:46:12;;;;;;;9.65;5.60;;;13.10;99.90;;;;;;5073257;28;20040;-69
2023/07/27 01:48:42;;;;;;;7.40;5.30;;;13.10;99.90;;;;;;5073318;28;20036;-69
2023/07/27 01:51:09;;;;;;;9.23;5.22;;;13.10;99.90;;;;;;5073392;28;20028;-69
2023/07/27 01:53:36;;;;;;;8.15;5.00;;;13.00;99.90;;;;;;5073380;28;20044;-69
2023/07/27 01:56:06;;;;;;;8.20;5.03;;;13.00;99.90;;;;;;5073157;28;20044;-70
2023/07/27 01:58:34;;;;;;;7.95;4.85;;;13.00;99.90;;;;;;5073046;28;20040;-69
2023/07/27 02:01:00;;;;;;;7.28;4.88;;;13.00;99.90;;;;;;5072922;28;20045;-69
2023/07/27 02:03:26;;;;;;;11.40;5.38;;;12.90;99.90;;;;;;5073146;28;20123;-69
2023/07/27 02:05:52;;;;;;;8.00;5.30;;;12.90;99.90;;;;;;5073002;28;20479;-69
2023/07/27 02:08:17;;;;;;;9.32;5.78;;;12.90;99.90;;;;;;5072623;28;20039;-69
2023/07/27 02:10:46;;;;;;;7.95;5.38;;;13.00;99.90;;;;;;5099409;22;20048;-68
2023/07/27 02:13:27;;;;;;;8.60;5.75;;;12.90;99.90;;;;;;5091943;28;20128;-68
2023/07/27 02:16:23;;;;;;;10.27;5.57;;;12.90;99.90;;;;;;5093023;28;20081;-66
2023/07/27 02:18:50;;;;;;;9.05;5.32;;;13.10;99.90;;;;;;5080962;28;20063;-68
2023/07/27 02:21:16;;;;;;;9.30;5.05;;;13.10;99.90;;;;;;5091536;28;20050;-69
2023/07/27 02:23:42;;;;;;;8.90;5.07;;;13.00;99.90;;;;;;5092937;28;20043;-69
2023/07/27 02:26:08;;;;;;;9.18;5.60;;;13.10;99.90;;;;;;5091703;28;20036;-68
2023/07/27 02:28:33;;;;;;;9.98;5.55;;;13.00;99.90;;;;;;5091279;28;20498;-68
2023/07/27 02:30:59;;;;;;;8.77;5.30;;;13.10;99.90;;;;;;5092545;28;20040;-68
2023/07/27 02:33:25;;;;;;;10.43;5.05;;;13.10;99.90;;;;;;5092485;28;20067;-70
2023/07/27 02:35:52;;;;;;;10.52;5.38;;;13.00;99.90;;;;;;5092663;28;20040;-71
2023/07/27 02:38:18;;;;;;;9.43;5.15;;;13.10;99.90;;;;;;5092648;28;20490;-70
2023/07/27 02:40:44;;;;;;;9.68;6.05;;;13.00;99.90;;;;;;5092480;28;20073;-70
2023/07/27 02:43:09;;;;;;;10.95;5.45;;;13.10;99.90;;;;;;5092542;28;20040;-70
2023/07/27 02:45:35;;;;;;;8.88;6.13;;;13.10;99.90;;;;;;5091443;28;20040;-70
2023/07/27 02:48:01;;;;;;;11.23;6.53;;;13.10;99.90;;;;;;5074001;28;20678;-70
2023/07/27 02:50:26;;;;;;;8.38;5.15;;;13.10;99.90;;;;;;5092522;28;20040;-70
2023/07/27 02:52:52;;;;;;;9.88;5.65;;;13.10;99.90;;;;;;5092570;28;20067;-70
2023/07/27 02:55:17;;;;;;;11.95;6.30;;;13.20;99.90;;;;;;5092441;28;20086;-70
2023/07/27 02:57:43;;;;;;;7.40;4.90;;;13.30;99.90;;;;;;5092083;28;20090;-70
2023/07/27 03:00:09;;;;;;;10.90;5.30;;;13.10;99.90;;;;;;5092140;28;20044;-70
2023/07/27 03:02:35;;;;;;;9.05;5.35;;;13.20;99.90;;;;;;5092333;28;20119;-70
2023/07/27 03:05:02;;;;;;;10.45;5.55;;;13.30;99.90;;;;;;5092416;28;20078;-70
2023/07/27 03:07:28;;;;;;;10.57;5.72;;;13.20;99.90;;;;;;5091989;28;20077;-70
2023/07/27 03:09:54;;;;;;;11.68;5.97;;;13.30;99.90;;;;;;5092051;28;20036;-70
2023/07/27 03:12:19;;;;;;;9.77;6.35;;;13.40;99.90;;;;;;5090667;28;20047;-70
2023/07/27 03:14:45;;;;;;;10.32;5.53;;;13.40;99.90;;;;;;5091946;28;20036;-70
2023/07/27 03:17:10;;;;;;;8.75;6.00;;;13.20;99.90;;;;;;5090388;28;20032;-70
2023/07/27 03:19:36;;;;;;;10.07;6.18;;;13.30;99.90;;;;;;5090696;28;20392;-70
2023/07/27 03:22:02;;;;;;;12.13;6.80;;;13.40;99.90;;;;;;5091966;28;20055;-70
2023/07/27 03:24:27;;;;;;;10.48;5.93;;;13.30;99.90;;;;;;5091964;28;20085;-70
2023/07/27 03:26:53;;;;;;;13.43;5.80;;;13.40;99.90;;;;;;5091561;28;20403;-70
2023/07/27 03:29:18;;;;;;;10.80;6.63;;;13.40;99.90;;;;;;5091838;28;20059;-70
2023/07/27 03:31:44;;;;;;;9.80;5.95;;;13.30;99.90;;;;;;5091340;28;20496;-70
2023/07/27 03:34:09;;;;;;;12.38;6.65;;;13.50;99.90;;;;;;5091787;28;20043;-70
2023/07/27 03:36:35;;;;;;;12.13;6.25;;;13.40;99.90;;;;;;5091590;28;20040;-70
2023/07/27 03:39:01;;;;;;;12.38;6.35;;;13.50;99.90;;;;;;5091852;28;20388;-70
2023/07/27 03:41:26;;;;;;;10.15;6.13;;;13.40;99.90;;;;;;5090324;28;20499;-70
2023/07/27 03:43:52;;;;;;;10.63;7.15;;;13.50;99.90;;;;;;5091567;28;20044;-70
2023/07/27 03:46:17;;;;;;;8.48;5.90;;;13.60;99.90;;;;;;5091491;28;20071;-71
2023/07/27 03:48:46;;;;;;;9.77;5.65;;;13.50;99.90;;;;;;5090469;28;20040;-70
2023/07/27 03:51:11;;;;;;;10.07;5.93;;;13.70;99.90;;;;;;5091670;28;20044;-70
2023/07/27 03:53:38;;;;;;;9.02;5.63;;;13.70;99.90;;;;;;5091641;28;20036;-70
2023/07/27 03:56:04;;;;;;;10.98;5.65;;;13.70;99.90;;;;;;5091530;28;20059;-70
2023/07/27 03:58:30;;;;;;;10.73;5.85;;;13.50;99.90;;;;;;5091331;28;20119;-70
2023/07/27 04:00:56;;;;;;;9.48;5.82;;;13.70;99.90;;;;;;5091617;28;20173;-70
2023/07/27 04:03:21;;;;;;;11.60;5.65;;;13.70;99.90;;;;;;5091543;28;20044;-70
2023/07/27 04:05:47;;;;;;;11.07;6.20;;;13.70;99.90;;;;;;5090222;28;20460;-70
2023/07/27 04:08:12;;;;;;;15.80;6.53;;;13.70;99.90;;;;;;5091247;28;20093;-70
2023/07/27 04:10:40;;;;;;;9.07;5.57;;;13.60;99.90;;;;;;5091198;28;20040;-70
2023/07/27 04:13:05;;;;;;;10.30;5.68;;;13.60;99.90;;;;;;5091488;28;20036;-70
2023/07/27 04:15:31;;;;;;;8.80;5.57;;;13.70;99.90;;;;;;5091210;28;20036;-70
2023/07/27 04:17:57;;;;;;;10.63;5.95;;;13.70;99.90;;;;;;5091108;28;20048;-70
2023/07/27 04:20:22;;;;;;;9.27;6.15;;;13.80;99.90;;;;;;5091461;28;20040;-70
2023/07/27 04:22:48;;;;;;;10.32;6.15;;;13.70;99.90;;;;;;5073112;28;20083;-70
2023/07/27 04:25:13;;;;;;;13.80;6.80;;;13.80;99.90;;;;;;5091395;28;20036;-70
2023/07/27 04:27:39;;;;;;;14.65;7.03;;;13.80;99.90;;;;;;5090965;28;20039;-70
2023/07/27 04:30:05;;;;;;;10.82;6.05;;;13.60;99.90;;;;;;5091199;28;20040;-70
2023/07/27 04:32:31;;;;;;;11.63;6.40;;;13.70;99.90;;;;;;5091451;28;20110;-70
2023/07/27 04:34:56;;;;;;;14.68;7.40;;;13.60;99.90;;;;;;5091120;28;20117;-70
2023/07/27 04:37:22;;;;;;;14.02;7.13;;;13.80;99.90;;;;;;5091117;28;20028;-69
2023/07/27 04:39:47;;;;;;;10.68;6.93;;;13.70;99.90;;;;;;5091221;28;20173;-70
2023/07/27 04:42:13;;;;;;;14.90;8.13;;;13.80;99.90;;;;;;5091607;28;20123;-69
2023/07/27 04:44:38;;;;;;;11.80;7.22;;;13.70;99.90;;;;;;5094683;28;20137;-70
2023/07/27 04:47:04;;;;;;;12.00;7.25;;;13.90;99.90;;;;;;5094042;28;20040;-69
2023/07/27 04:49:30;;;;;;;10.77;6.55;;;13.70;99.90;;;;;;5094936;28;20043;-70
2023/07/27 04:51:55;;;;;;;11.43;7.55;;;13.80;99.90;;;;;;5094869;28;20032;-69
2023/07/27 04:54:21;;;;;;;12.50;6.75;;;13.90;99.90;;;;;;5094739;28;20036;-69
2023/07/27 04:56:46;;;;;;;13.88;7.53;;;13.70;99.90;;;;;;5094363;28;20051;-70
2023/07/27 04:59:12;;;;;;;11.27;7.22;;;14.00;99.90;;;;;;5094531;28;20047;-69
2023/07/27 05:01:37;;;;;;;14.98;8.32;;;13.90;99.90;;;;;;5089583;28;20031;-69
2023/07/27 05:04:03;;;;;;;12.93;7.72;;;14.00;99.90;;;;;;5094478;28;20043;-70
2023/07/27 05:06:29;;;;;;;12.15;7.65;;;14.00;99.90;;;;;;5094302;28;20419;-69
2023/07/27 05:08:54;;;;;;;13.73;8.02;;;14.00;99.90;;;;;;5094431;28;20380;-69
2023/07/27 05:11:20;;;;;;;11.43;7.38;;;14.00;99.90;;;;;;5092777;28;20048;-69
2023/07/27 05:13:46;;;;;;;12.23;7.47;;;13.90;99.90;;;;;;5094039;28;20065;-69
2023/07/27 05:16:12;;;;;;;11.32;7.40;;;13.90;99.90;;;;;;5093410;28;20044;-69
2023/07/27 05:18:37;;;;;;;14.00;7.50;;;14.00;99.90;;;;;;5092820;28;20044;-69
2023/07/27 05:21:03;;;;;;;11.50;7.05;;;13.90;99.90;;;;;;5094101;28;20036;-69
2023/07/27 05:23:28;;;;;;;10.50;7.35;;;14.10;99.90;;;;;;5094123;28;20075;-69
2023/07/27 05:25:54;;;;;;;11.60;7.22;;;14.10;99.90;;;;;;5092928;28;20059;-69
2023/07/27 05:28:20;;;;;;;9.52;6.43;;;14.10;99.90;;;;;;5093710;28;20032;-69
2023/07/27 05:30:45;;;;;;;12.73;7.07;;;14.20;99.90;;;;;;5093982;28;20580;-69
2023/07/27 05:33:11;;;;;;;14.48;6.60;;;14.10;99.90;;;;;;5093859;28;20039;-69
2023/07/27 05:35:36;;;;;;;10.90;6.03;;;13.90;99.90;;;;;;5093767;28;20075;-69
2023/07/27 05:38:02;;;;;;;10.35;6.57;;;14.10;99.90;;;;;;5095322;28;20126;-69
2023/07/27 05:40:27;;;;;;;10.60;5.80;;;14.10;99.90;;;;;;5095105;28;20046;-69
2023/07/27 05:42:53;;;;;;;9.50;6.03;;;13.90;99.90;;;;;;5095508;28;20051;-69
2023/07/27 05:45:18;;;;;;;9.30;5.88;;;13.90;99.90;;;;;;5095524;28;20042;-70
2023/07/27 05:47:44;;;;;;;9.02;5.35;;;13.90;99.90;;;;;;5095160;28;20399;-70
2023/07/27 05:50:09;;;;;;;9.20;5.57;;;14.00;99.90;;;;;;5095297;28;20043;-69
2023/07/27 05:52:35;;;;;;;8.00;5.20;;;14.20;99.90;;;;;;5094275;28;20032;-69
2023/07/27 05:55:01;;;;;;;9.57;5.75;;;14.00;99.90;;;;;;5094009;28;20115;-69
2023/07/27 05:57:26;;;;;;;7.70;5.50;;;14.00;99.90;;;;;;5093588;28;20077;-69
2023/07/27 05:59:52;;;;;;;10.38;5.97;;;14.20;99.90;;;;;;5093369;28;20036;-69
2023/07/27 06:02:17;;;;;;;9.25;5.80;;;13.90;99.90;;;;;;5091067;28;20036;-69
2023/07/27 06:04:43;;;;;;;10.18;6.38;;;14.00;99.90;;;;;;5083840;28;20120;-69
2023/07/27 06:07:08;;;;;;;10.23;6.00;;;14.20;99.90;;;;;;5082413;28;20035;-68
2023/07/27 06:09:36;;;;;;;12.38;6.55;;;14.00;99.90;;;;;;5092960;28;20046;-69
2023/07/27 06:12:10;;;;;;;11.93;7.47;;;14.00;99.90;;;;;;5091850;28;20058;-69
2023/07/27 06:14:36;;;;;;;11.48;6.82;;;14.20;99.90;;;;;;5093475;28;20040;-69
2023/07/27 06:17:01;;;;;;;11.75;6.65;;;14.00;99.90;;;;;;5091776;28;20047;-70
2023/07/27 06:19:27;;;;;;;10.70;6.75;;;14.20;99.90;;;;;;5093050;28;20123;-69
2023/07/27 06:21:53;;;;;;;10.82;7.30;;;14.30;99.90;;;;;;5092997;28;20053;-69
2023/07/27 06:24:19;;;;;;;10.85;6.80;;;14.20;99.90;;;;;;5092742;28;20050;-69
2023/07/27 06:26:44;;;;;;;12.63;7.25;;;14.50;99.90;;;;;;5092918;28;20036;-70
2023/07/27 06:29:10;;;;;;;11.85;8.05;;;14.20;99.90;;;;;;5091587;28;20040;-69
2023/07/27 06:31:35;;;;;;;11.82;7.32;;;14.50;99.90;;;;;;5092727;28;20040;-70
2023/07/27 06:34:01;;;;;;;11.73;7.00;;;14.70;99.90;;;;;;5074459;28;20079;-72
2023/07/27 06:36:26;;;;;;;10.02;6.22;;;14.50;99.90;;;;;;5092180;28;20178;-71
2023/07/27 06:38:52;;;;;;;10.13;6.57;;;14.70;99.90;;;;;;5092506;28;20036;-72
2023/07/27 06:41:24;;;;;;;9.35;6.40;;;15.10;99.90;;;;;;5091271;28;20044;-71
2023/07/27 06:43:50;;;;;;;11.20;7.88;;;15.20;99.90;;;;;;5091505;28;20093;-71
2023/07/27 06:46:16;;;;;;;12.07;7.00;;;15.00;99.90;;;;;;5092539;28;20437;-71
2023/07/27 06:48:41;;;;;;;11.13;6.40;;;15.20;99.90;;;;;;5092362;28;20040;-71
2023/07/27 06:51:07;;;;;;;9.20;6.30;;;15.20;99.90;;;;;;5092387;28;20096;-71
2023/07/27 06:53:33;;;;;;;9.07;6.43;;;15.40;99.90;;;;;;5092368;28;20035;-71
2023/07/27 06:55:58;;;;;;;9.27;6.30;;;15.50;99.90;;;;;;5092357;28;20051;-71
2023/07/27 06:58:24;;;;;;;8.50;6.13;;;15.30;99.90;;;;;;5090849;28;20054;-71
2023/07/27 07:00:49;;;;;;;18.17;7.45;;;15.30;99.90;;;;;;5091855;28;20047;-71
2023/07/27 07:03:15;;;;;;;14.73;6.93;;;15.40;99.90;;;;;;5090624;28;20036;-72
2023/07/27 07:05:41;;;;;;;11.02;6.20;;;15.10;99.90;;;;;;5091706;28;20044;-72
2023/07/27 07:08:06;;;;;;;9.77;6.97;;;15.10;99.90;;;;;;5090605;28;20471;-71
2023/07/27 07:10:32;;;;;;;11.48;6.80;;;15.30;99.90;;;;;;5091800;28;20097;-72
2023/07/27 07:12:58;;;;;;;10.63;6.20;;;15.20;99.90;;;;;;5090466;28;20054;-72
2023/07/27 07:15:23;;;;;;;9.65;6.40;;;15.10;99.90;;;;;;5090705;28;20082;-72
2023/07/27 07:17:49;;;;;;;9.52;6.43;;;15.10;99.90;;;;;;5091830;28;20055;-72
2023/07/27 07:20:14;;;;;;;11.20;7.53;;;15.20;99.90;;;;;;5090545;28;20067;-72
2023/07/27 07:22:40;;;;;;;14.45;8.07;;;15.20;99.90;;;;;;5091512;28;20067;-71
2023/07/27 07:25:06;;;;;;;8.40;7.05;;;15.20;99.90;;;;;;5092034;28;20043;-72
2023/07/27 07:27:31;;;;;;;12.27;8.23;;;15.30;99.90;;;;;;5091673;28;20668;-72
2023/07/27 07:29:57;;;;;;;13.30;7.68;;;15.30;99.90;;;;;;5090687;28;20071;-72
2023/07/27 07:32:22;;;;;;;10.48;7.20;;;15.40;99.90;;;;;;5090283;28;20040;-72
2023/07/27 07:34:51;;;;;;;12.20;7.53;;;15.10;99.90;;;;;;5090535;28;20040;-72
2023/07/27 07:37:17;;;;;;;9.98;6.90;;;15.30;99.90;;;;;;5073370;28;20050;-71
2023/07/27 07:39:42;;;;;;;9.88;6.47;;;15.10;99.90;;;;;;5091705;28;20065;-72
2023/07/27 07:42:08;;;;;;;8.27;6.57;;;15.40;99.90;;;;;;5090552;28;20044;-72
2023/07/27 07:44:33;;;;;;;8.88;6.07;;;15.30;99.90;;;;;;5091798;28;20101;-72
2023/07/27 07:46:59;;;;;;;7.05;5.30;;;15.50;99.90;;;;;;5090084;28;20491;-71
2023/07/27 07:49:26;;;;;;;7.25;5.90;;;15.30;99.90;;;;;;5090895;28;20077;-72
2023/07/27 07:51:52;;;;;;;10.13;5.57;;;15.30;99.90;;;;;;5089924;28;20072;-72
2023/07/27 07:54:17;;;;;;;7.22;5.28;;;15.50;99.90;;;;;;5091790;28;20071;-72
2023/07/27 07:56:44;;;;;;;10.40;5.80;;;15.60;99.90;;;;;;5091230;28;20089;-72
2023/07/27 07:59:09;;;;;;;8.13;5.65;;;15.70;99.90;;;;;;5091567;28;20043;-72
2023/07/27 08:01:35;;;;;;;8.43;5.60;;;15.70;99.90;;;;;;5089883;28;20051;-71
2023/07/27 08:04:00;;;;;;;5.78;4.80;;;15.80;99.90;;;;;;5091309;28;20112;-72
2023/07/27 08:06:26;;;;;;;8.77;4.95;;;15.60;99.90;;;;;;5091176;28;20078;-72
2023/07/27 08:08:51;;;;;;;6.80;4.85;;;15.60;99.90;;;;;;5091358;28;20039;-72
2023/07/27 08:11:17;;;;;;;6.05;3.70;;;15.70;99.90;;;;;;5107393;22;20472;-73
2023/07/27 08:13:42;;;;;;;6.57;4.85;;;15.70;99.90;;;;;;5052840;28;20105;-73
2023/07/27 08:16:08;;;;;;;7.70;5.07;;;15.90;99.90;;;;;;5052292;28;20082;-73
2023/07/27 08:18:33;;;;;;;6.57;5.05;;;16.00;99.90;;;;;;5055163;28;20420;-73
2023/07/27 08:21:01;;;;;;;7.88;4.40;;;15.80;99.90;;;;;;5055931;28;20049;-73
2023/07/27 08:23:28;;;;;;;5.88;4.80;;;15.60;99.90;;;;;;5073906;28;20044;-74
2023/07/27 08:25:54;;;;;;;5.50;4.30;;;15.70;99.90;;;;;;5055865;28;20040;-73
2023/07/27 08:28:20;;;;;;;7.20;4.80;;;16.00;99.90;;;;;;5056196;28;20044;-73
2023/07/27 08:30:47;;;;;;;6.35;4.80;;;15.80;99.90;;;;;;5074757;28;20044;-73
2023/07/27 08:33:12;;;;;;;5.57;4.88;;;16.10;99.90;;;;;;5040136;28;20119;-73
2023/07/27 08:35:39;;;;;;;5.63;4.35;;;15.80;99.90;;;;;;5056813;28;20169;-74
2023/07/27 08:38:07;;;;;;;5.90;4.70;;;15.90;99.90;;;;;;5056629;28;20101;-73
2023/07/27 08:40:33;;;;;;;6.38;5.20;;;15.90;99.90;;;;;;5039881;28;20045;-73
2023/07/27 08:42:58;;;;;;;6.80;5.63;;;16.10;99.90;;;;;;5056937;28;20047;-73
2023/07/27 08:45:25;;;;;;;6.53;5.20;;;16.10;99.90;;;;;;5056780;28;20542;-71
2023/07/27 08:47:52;;;;;;;6.03;4.50;;;16.00;99.90;;;;;;5056294;28;20040;-71
2023/07/27 08:50:19;;;;;;;7.35;4.63;;;15.80;99.90;;;;;;5056470;28;20042;-71
2023/07/27 08:52:46;;;;;;;6.90;5.10;;;15.90;99.90;;;;;;5056402;28;20044;-71
2023/07/27 08:55:12;;;;;;;5.85;4.63;;;15.90;99.90;;;;;;5056029;28;20040;-71
2023/07/27 08:57:38;;;;;;;5.85;4.82;;;15.90;99.90;;;;;;5072346;28;20458;-71
2023/07/27 09:00:04;;;;;;;7.18;4.90;;;16.10;99.90;;;;;;5046217;28;20035;-70
2023/07/27 09:02:29;;;;;;;4.60;4.20;;;16.00;99.90;;;;;;5045681;28;20127;-70
2023/07/27 09:04:55;;;;;;;6.20;5.25;;;16.30;99.90;;;;;;5056292;28;20089;-70
2023/07/27 09:07:21;;;;;;;5.20;4.70;;;16.20;99.90;;;;;;5073642;28;20044;-71
2023/07/27 09:09:51;;;;;;;6.30;5.22;;;16.20;99.90;;;;;;5056047;28;20033;-70
2023/07/27 09:12:18;;;;;;;6.90;5.60;;;16.40;99.90;;;;;;5055787;28;20040;-70
2023/07/27 09:14:44;;;;;;;6.25;5.28;;;16.30;99.90;;;;;;5055945;28;20048;-70
2023/07/27 09:17:12;;;;;;;6.10;5.50;;;16.50;99.90;;;;;;5055827;28;20051;-70
2023/07/27 09:19:40;;;;;;;9.57;6.50;;;16.40;99.90;;;;;;5055933;28;20137;-70
2023/07/27 09:22:07;;;;;;;6.63;5.80;;;16.70;99.90;;;;;;5056051;28;20053;-70
2023/07/27 09:24:33;;;;;;;7.50;6.32;;;16.60;99.90;;;;;;5049436;28;20041;-71
2023/07/27 09:27:01;;;;;;;6.38;5.55;;;16.80;99.90;;;;;;5046938;28;20086;-71
2023/07/27 09:29:27;;;;;;;6.13;5.50;;;16.70;99.90;;;;;;5044496;28;20409;-71
2023/07/27 09:31:58;;;;;;;5.78;4.95;;;17.00;99.90;;;;;;5057221;28;20041;-70
2023/07/27 09:34:28;;;;;;;5.97;5.32;;;16.80;99.90;;;;;;5035690;28;20049;-71
2023/07/27 09:36:55;;;;;;;5.55;4.70;;;16.80;99.90;;;;;;5035240;28;20059;-70
2023/07/27 09:39:22;;;;;;;6.00;5.15;;;16.80;99.90;;;;;;5035446;28;20527;-70
2023/07/27 09:41:47;;;;;;;7.35;5.32;;;17.00;99.90;;;;;;5035588;28;20076;-70
2023/07/27 09:44:17;;;;;;;6.05;5.40;;;17.20;99.90;;;;;;5035636;28;20099;-70
2023/07/27 09:46:47;;;;;;;5.40;4.90;;;17.00;99.90;;;;;;5035536;28;20457;-72
2023/07/27 09:49:14;;;;;;;4.85;4.30;;;17.00;99.90;;;;;;5035633;28;20393;-71
2023/07/27 09:51:40;;;;;;;5.15;4.53;;;17.00;99.90;;;;;;5035279;28;20073;-71
2023/07/27 09:54:06;;;;;;;6.13;4.32;;;16.90;99.90;;;;;;5035525;28;20087;-71
2023/07/27 09:56:32;;;;;;;4.68;4.25;;;16.90;99.90;;;;;;5035072;28;20047;-72
2023/07/27 09:58:59;;;;;;;4.47;4.07;;;17.10;99.90;;;;;;5046773;28;20115;-71
2023/07/27 10:01:25;;;;;;;4.75;4.35;;;16.80;99.90;;;;;;5051564;28;20040;-71
2023/07/27 10:03:57;;;;;;;4.60;4.10;;;17.10;99.90;;;;;;5058095;28;20112;-71
2023/07/27 10:06:23;;;;;;;4.60;4.03;;;17.20;99.90;;;;;;5070638;28;20048;-71
2023/07/27 10:08:49;;;;;;;4.97;4.13;;;17.00;99.90;;;;;;5055038;28;20045;-71
2023/07/27 10:11:15;;;;;;;3.97;3.63;;;16.90;99.90;;;;;;5071725;28;20051;-72
2023/07/27 10:13:43;;;;;;;4.22;3.83;;;16.90;99.90;;;;;;5054886;28;20037;-72
2023/07/27 10:16:11;;;;;;;3.40;3.10;;;17.20;99.90;;;;;;5054848;28;20133;-71
2023/07/27 10:18:42;;;;;;;3.83;3.42;;;17.20;99.90;;;;;;5064172;28;20036;-71
2023/07/27 10:21:27;;;;;;;5.43;4.45;;;16.90;99.90;;;;;;5068452;28;20471;-72
2023/07/27 10:24:01;;;;;;;4.03;3.63;;;17.20;99.90;;;;;;5071242;28;20056;-72
2023/07/27 10:26:49;;;;;;;3.65;3.35;;;17.20;99.90;;;;;;5071099;28;20046;-72
2023/07/27 10:29:27;;;;;;;4.28;3.33;;;16.90;99.90;;;;;;5054989;28;20094;-72
2023/07/27 10:32:04;;;;;;;3.75;2.92;;;16.80;99.90;;;;;;5071215;28;20173;-72
2023/07/27 10:34:32;;;;;;;3.40;3.10;;;16.80;99.90;;;;;;5070908;28;20089;-71
2023/07/27 10:37:00;;;;;;;3.42;3.13;;;17.00;99.90;;;;;;5018180;28;20049;-71
2023/07/27 10:39:29;;;;;;;3.00;2.70;;;17.20;99.90;;;;;;5034436;28;20152;-71
2023/07/27 10:42:01;;;;;;;3.65;3.35;;;17.20;99.90;;;;;;5034042;28;20049;-71
2023/07/27 10:44:33;;;;;;;3.22;2.92;;;16.90;99.90;;;;;;5017907;28;20041;-71
2023/07/27 10:46:59;;;;;;;3.13;2.83;;;17.20;99.90;;;;;;5034116;28;20041;-71
2023/07/27 10:49:25;;;;;;;3.20;2.90;;;17.10;99.90;;;;;;5034407;28;20125;-71
2023/07/27 10:51:52;;;;;;;3.50;3.13;;;17.20;99.90;;;;;;5048620;28;20696;-71
2023/07/27 10:54:18;;;;;;;3.17;2.88;;;17.20;99.90;;;;;;5059142;28;20032;-71
2023/07/27 10:56:44;;;;;;;4.57;3.40;;;17.10;99.90;;;;;;5062027;28;20050;-71
2023/07/27 10:59:18;;;;;;;3.88;3.58;;;17.00;99.90;;;;;;5071988;28;20135;-71
2023/07/27 11:01:47;;;;;;;4.80;4.30;;;17.10;99.90;;;;;;5070595;28;20519;-71
2023/07/27 11:04:14;;;;;;;5.57;4.90;;;17.00;99.90;;;;;;5070634;28;20048;-71
2023/07/27 11:06:42;;;;;;;5.50;4.20;;;17.00;99.90;;;;;;5070376;28;20036;-71
2023/07/27 11:09:12;;;;;;;4.55;4.13;;;17.30;99.90;;;;;;5054241;28;20040;-71
2023/07/27 11:11:39;;;;;;;5.57;5.07;;;17.40;99.90;;;;;;5070706;28;20059;-71
2023/07/27 11:14:06;;;;;;;5.85;4.90;;;17.10;99.90;;;;;;5053920;28;20041;-71
2023/07/27 11:16:37;;;;;;;5.40;4.90;;;16.90;99.90;;;;;;5070224;28;20044;-71
2023/07/27 11:19:04;;;;;;;4.65;4.00;;;17.20;99.90;;;;;;5070564;28;20114;-71
2023/07/27 11:21:36;;;;;;;5.43;4.75;;;17.40;99.90;;;;;;5070298;28;20116;-71
2023/07/27 11:24:03;;;;;;;4.93;4.43;;;17.10;99.90;;;;;;5070470;28;20036;-71
2023/07/27 11:26:30;;;;;;;4.38;3.97;;;17.20;99.90;;;;;;5053704;28;20279;-71
2023/07/27 11:28:55;;;;;;;4.30;3.90;;;17.10;99.90;;;;;;5053708;28;20041;-70
2023/07/27 11:31:22;;;;;;;6.65;4.25;;;17.40;99.90;;;;;;5070208;28;20044;-71
2023/07/27 11:33:47;;;;;;;5.53;4.30;;;17.00;99.90;;;;;;5041612;28;20116;-72
2023/07/27 11:36:13;;;;;;;5.75;4.72;;;17.40;99.90;;;;;;5053534;28;20357;-71
2023/07/27 11:38:38;;;;;;;5.35;4.40;;;17.40;99.90;;;;;;5051330;28;20041;-71
2023/07/27 11:41:06;;;;;;;4.70;4.25;;;17.40;99.90;;;;;;5033428;28;20041;-71
2023/07/27 11:43:32;;;;;;;6.10;5.05;;;17.20;99.90;;;;;;5042778;28;20029;-71
2023/07/27 11:46:00;;;;;;;6.07;5.40;;;17.20;99.90;;;;;;5051999;28;20041;-71
2023/07/27 11:48:29;;;;;;;6.55;5.90;;;17.30;99.90;;;;;;5053010;28;20059;-71
2023/07/27 11:50:59;;;;;;;6.68;5.63;;;17.40;99.90;;;;;;5053044;28;20123;-71
2023/07/27 11:53:26;;;;;;;7.32;6.25;;;17.00;99.90;;;;;;5057178;28;20083;-71
2023/07/27 11:55:55;;;;;;;6.10;5.50;;;17.50;99.90;;;;;;5041129;28;20037;-71
2023/07/27 11:58:29;;;;;;;6.43;5.35;;;17.50;99.90;;;;;;5057224;28;20525;-72
2023/07/27 12:00:55;;;;;;;5.72;5.22;;;17.30;99.90;;;;;;5035260;28;20432;-71
2023/07/27 12:03:23;;;;;;;5.32;4.82;;;17.60;99.90;;;;;;5047705;28;20047;-71
2023/07/27 12:05:52;;;;;;;5.85;5.25;;;17.30;99.90;;;;;;5045509;28;20098;-71
2023/07/27 12:08:19;;;;;;;5.25;4.75;;;17.60;99.90;;;;;;5025423;28;20041;-71
2023/07/27 12:10:56;;;;;;;5.35;4.32;;;17.70;99.90;;;;;;5044565;28;20037;-71
2023/07/27 12:13:25;;;;;;;6.22;5.13;;;17.80;99.90;;;;;;5020457;28;20076;-71
2023/07/27 12:15:59;;;;;;;4.72;4.32;;;17.50;99.90;;;;;;5041924;28;20105;-71
2023/07/27 12:18:27;;;;;;;5.35;4.85;;;17.60;99.90;;;;;;5031829;28;20458;-71
2023/07/27 12:20:54;;;;;;;5.18;4.68;;;17.80;99.90;;;;;;5044530;28;20716;-71
2023/07/27 12:23:20;;;;;;;4.72;4.32;;;17.90;99.90;;;;;;5036388;28;20045;-71
2023/07/27 12:25:46;;;;;;;4.90;3.92;;;18.10;99.90;;;;;;5036827;28;20037;-79
2023/07/27 12:28:11;;;;;;;5.18;4.38;;;17.90;99.90;;;;;;5045657;28;20411;-72
2023/07/27 12:30:37;;;;;;;5.15;3.78;;;17.90;99.90;;;;;;5044197;28;20049;-71
2023/07/27 12:33:02;;;;;;;3.70;3.08;;;18.30;99.90;;;;;;5070456;28;20507;-72
2023/07/27 12:35:31;;;;;;;3.22;2.92;;;18.10;99.90;;;;;;5039812;28;20048;-72
2023/07/27 12:38:00;;;;;;;3.33;2.90;;;18.10;99.90;;;;;;5056281;28;20530;-72
2023/07/27 12:40:26;;;;;;;2.92;2.63;;;18.30;99.90;;;;;;5056650;28;20407;-72
2023/07/27 12:42:52;;;;;;;2.97;2.67;;;18.10;99.90;;;;;;5052447;28;20044;-73